Time;durP1;ratioP1;P1;durP2;ratioP2;P2;SDS_P1;SDS_P2;PMS_P1;PMS_P2;Temp;Humidity;BMP_temperature;BMP_pressure;BME280_temperature;BME280_humidity;BME280_pressure;Samples;Min_cycle;Max_cycle;Signal;HPM_P1;HPM_P2
2021/07/15 00:00:16;;;;;;;0.40;0.40;;;16.60;99.90;;;;;;4973411;28;20672;-93
2021/07/15 00:02:43;;;;;;;0.50;0.50;;;16.50;99.90;;;;;;4967002;28;20654;-91
2021/07/15 00:05:12;;;;;;;2.00;0.47;;;16.50;99.90;;;;;;4970657;28;20658;-92
2021/07/15 00:07:41;;;;;;;1.90;0.50;;;16.50;99.90;;;;;;4970331;28;22804;-93
2021/07/15 00:10:15;;;;;;;0.50;0.50;;;16.50;99.90;;;;;;4967619;28;20667;-93
2021/07/15 00:12:45;;;;;;;2.23;0.50;;;16.50;99.90;;;;;;4973597;28;20745;-93
2021/07/15 00:15:13;;;;;;;0.50;0.50;;;16.50;99.90;;;;;;4967552;28;20636;-92
2021/07/15 00:17:40;;;;;;;1.03;0.40;;;16.50;99.90;;;;;;4967894;28;20938;-94
2021/07/15 00:20:11;;;;;;;0.93;0.50;;;16.50;99.90;;;;;;4971614;28;20612;-93
2021/07/15 00:22:40;;;;;;;1.43;0.70;;;16.50;99.90;;;;;;4965629;28;21054;-93
2021/07/15 00:25:10;;;;;;;0.80;0.60;;;16.50;99.90;;;;;;4969274;28;20657;-93
2021/07/15 00:27:39;;;;;;;1.20;0.70;;;16.50;99.90;;;;;;4964019;28;20633;-93
2021/07/15 00:30:07;;;;;;;1.67;0.53;;;16.50;99.90;;;;;;4968647;28;20646;-91
2021/07/15 00:32:34;;;;;;;0.40;0.40;;;16.50;99.90;;;;;;4972887;28;20637;-90
2021/07/15 00:35:01;;;;;;;0.63;0.30;;;16.40;99.90;;;;;;4966145;28;21148;-93
2021/07/15 00:37:29;;;;;;;1.63;0.33;;;16.30;99.90;;;;;;4979066;28;20699;-93
2021/07/15 00:39:57;;;;;;;0.50;0.30;;;16.20;99.90;;;;;;4989429;28;20668;-93
2021/07/15 00:42:24;;;;;;;0.40;0.30;;;16.20;99.90;;;;;;4990700;28;20611;-92
2021/07/15 00:44:51;;;;;;;0.50;0.40;;;16.10;99.90;;;;;;4971722;28;20658;-92
2021/07/15 00:47:18;;;;;;;2.30;0.30;;;16.10;99.90;;;;;;4976747;28;20660;-92
2021/07/15 00:49:45;;;;;;;0.50;0.40;;;16.00;99.90;;;;;;4961108;28;21264;-92
2021/07/15 00:52:12;;;;;;;0.83;0.40;;;15.90;99.90;;;;;;4977061;28;20747;-92
2021/07/15 00:54:41;;;;;;;0.40;0.30;;;15.90;99.90;;;;;;4967559;28;20728;-92
2021/07/15 00:57:09;;;;;;;1.20;0.63;;;15.90;99.90;;;;;;4967493;28;21129;-92
2021/07/15 00:59:37;;;;;;;1.17;0.40;;;15.90;99.90;;;;;;4970196;28;20641;-93
2021/07/15 01:02:04;;;;;;;0.60;0.37;;;15.80;99.90;;;;;;4970472;28;21212;-92
2021/07/15 01:04:32;;;;;;;0.80;0.30;;;15.80;99.90;;;;;;4975674;28;20656;-93
2021/07/15 01:06:59;;;;;;;0.63;0.33;;;15.70;99.90;;;;;;4972007;28;20630;-93
2021/07/15 01:09:26;;;;;;;1.93;0.37;;;15.60;99.90;;;;;;4968585;28;20667;-92
2021/07/15 01:12:08;;;;;;;0.93;0.63;;;15.60;99.90;;;;;;4971736;28;20744;-92
2021/07/15 01:14:47;;;;;;;0.60;0.50;;;15.60;99.90;;;;;;4972071;28;20640;-94
2021/07/15 01:17:19;;;;;;;0.60;0.40;;;15.50;99.90;;;;;;4973478;28;20761;-94
2021/07/15 01:20:27;;;;;;;0.40;0.40;;;15.40;99.90;;;;;;4973213;28;20614;-94
2021/07/15 01:23:11;;;;;;;1.23;0.40;;;15.40;99.90;;;;;;4982025;28;20623;-94
2021/07/15 01:25:54;;;;;;;0.80;0.30;;;15.40;99.90;;;;;;4997925;28;20680;-93
2021/07/15 01:28:27;;;;;;;0.40;0.30;;;15.40;99.90;;;;;;4964387;28;20989;-94
2021/07/15 01:31:00;;;;;;;0.97;0.40;;;15.30;99.90;;;;;;4969185;28;20683;-93
2021/07/15 01:33:30;;;;;;;0.77;0.30;;;15.30;99.90;;;;;;4972051;28;20613;-92
2021/07/15 01:36:00;;;;;;;0.90;0.30;;;15.30;99.90;;;;;;4976486;28;20618;-93
2021/07/15 01:38:31;;;;;;;0.50;0.40;;;15.30;99.90;;;;;;4973426;28;20644;-92
2021/07/15 01:41:02;;;;;;;2.63;0.30;;;15.30;99.90;;;;;;4968892;28;20756;-92
2021/07/15 01:43:34;;;;;;;0.80;0.30;;;15.30;99.90;;;;;;4972855;28;20649;-93
2021/07/15 01:46:04;;;;;;;0.80;0.40;;;15.30;99.90;;;;;;4972223;28;21571;-93
2021/07/15 01:48:31;;;;;;;0.77;0.40;;;15.30;99.90;;;;;;4971470;28;21117;-92
2021/07/15 01:51:00;;;;;;;0.50;0.30;;;15.30;99.90;;;;;;4971115;28;20653;-93
2021/07/15 01:53:28;;;;;;;0.77;0.40;;;15.40;99.90;;;;;;4967705;28;20637;-91
2021/07/15 01:55:57;;;;;;;0.90;0.50;;;15.40;99.90;;;;;;4968532;28;20631;-92
2021/07/15 01:58:26;;;;;;;2.97;0.50;;;15.40;99.90;;;;;;4968436;28;20641;-91
2021/07/15 02:00:53;;;;;;;1.07;0.40;;;15.40;99.90;;;;;;4974403;28;20660;-92
2021/07/15 02:03:22;;;;;;;0.63;0.37;;;15.40;99.90;;;;;;4967475;28;20640;-91
2021/07/15 02:05:51;;;;;;;1.20;0.40;;;15.40;99.90;;;;;;4969417;28;21240;-93
2021/07/15 02:08:18;;;;;;;1.80;0.50;;;15.40;99.90;;;;;;4972784;28;20625;-91
2021/07/15 02:10:46;;;;;;;0.60;0.40;;;15.40;99.90;;;;;;4968021;28;20993;-92
2021/07/15 02:13:14;;;;;;;0.40;0.30;;;15.40;99.90;;;;;;4971426;28;20637;-92
2021/07/15 02:15:41;;;;;;;1.03;0.50;;;15.40;99.90;;;;;;4975270;28;20616;-92
2021/07/15 02:18:12;;;;;;;0.70;0.60;;;15.40;99.90;;;;;;4962847;28;20587;-93
2021/07/15 02:20:42;;;;;;;2.17;0.40;;;15.40;99.90;;;;;;4972091;28;20676;-93
2021/07/15 02:23:11;;;;;;;0.53;0.40;;;15.40;99.90;;;;;;4969866;28;21104;-91
2021/07/15 02:25:40;;;;;;;0.67;0.40;;;15.40;99.90;;;;;;4972113;28;20665;-91
2021/07/15 02:28:09;;;;;;;0.83;0.40;;;15.30;99.90;;;;;;4965294;28;20696;-93
2021/07/15 02:30:37;;;;;;;1.67;0.40;;;15.40;99.90;;;;;;4971218;28;20768;-93
2021/07/15 02:33:10;;;;;;;0.90;0.27;;;15.30;99.90;;;;;;4975376;28;20999;-92
2021/07/15 02:35:43;;;;;;;0.70;0.40;;;15.40;99.90;;;;;;4971727;28;20641;-93
2021/07/15 02:38:13;;;;;;;0.60;0.40;;;15.40;99.90;;;;;;4974221;28;21334;-92
2021/07/15 02:40:40;;;;;;;0.40;0.30;;;15.40;99.90;;;;;;4965408;28;20665;-93
2021/07/15 02:43:07;;;;;;;1.10;0.30;;;15.40;99.90;;;;;;4971647;28;21213;-90
2021/07/15 02:45:34;;;;;;;0.50;0.40;;;15.40;99.90;;;;;;4961526;28;20661;-91
2021/07/15 02:48:00;;;;;;;0.50;0.30;;;15.40;99.90;;;;;;4965645;28;20997;-91
2021/07/15 02:50:28;;;;;;;0.70;0.43;;;15.30;99.90;;;;;;4970405;28;20659;-90
2021/07/15 02:52:58;;;;;;;0.50;0.30;;;15.30;99.90;;;;;;4965676;28;20614;-90
2021/07/15 02:55:27;;;;;;;3.23;0.70;;;15.30;99.90;;;;;;4969534;28;20657;-91
2021/07/15 02:58:00;;;;;;;0.47;0.30;;;15.30;99.90;;;;;;4971028;28;20863;-90
2021/07/15 03:00:28;;;;;;;0.60;0.40;;;15.30;99.90;;;;;;4971001;28;21295;-94
2021/07/15 03:03:02;;;;;;;0.57;0.30;;;15.30;99.90;;;;;;4991660;28;20696;-92
2021/07/15 03:05:35;;;;;;;0.40;0.33;;;15.30;99.90;;;;;;4993274;28;20653;-93
2021/07/15 03:08:06;;;;;;;0.43;0.30;;;15.30;99.90;;;;;;4975321;28;20613;-90
2021/07/15 03:10:34;;;;;;;0.43;0.30;;;15.30;99.90;;;;;;4967753;28;20715;-92
2021/07/15 03:13:04;;;;;;;0.40;0.30;;;15.30;99.90;;;;;;4966685;28;20623;-91
2021/07/15 03:15:35;;;;;;;0.50;0.30;;;15.30;99.90;;;;;;4967292;28;20632;-93
2021/07/15 03:18:03;;;;;;;1.70;0.37;;;15.30;99.90;;;;;;4968340;28;20642;-92
2021/07/15 03:20:34;;;;;;;0.77;0.30;;;15.30;99.90;;;;;;4976038;28;20667;-91
2021/07/15 03:23:05;;;;;;;0.50;0.30;;;15.30;99.90;;;;;;4964797;28;20769;-92
2021/07/15 03:25:34;;;;;;;0.40;0.30;;;15.30;99.90;;;;;;4967069;28;20660;-92
2021/07/15 03:28:05;;;;;;;1.27;0.50;;;15.30;99.90;;;;;;4971661;28;20646;-92
2021/07/15 03:30:34;;;;;;;1.17;0.50;;;15.30;99.90;;;;;;4966174;28;21223;-93
2021/07/15 03:33:02;;;;;;;0.50;0.30;;;15.20;99.90;;;;;;4967434;28;21200;-92
2021/07/15 03:35:30;;;;;;;0.70;0.30;;;15.30;99.90;;;;;;4971604;28;20620;-92
2021/07/15 03:37:58;;;;;;;1.17;0.30;;;15.30;99.90;;;;;;4966591;28;20638;-92
2021/07/15 03:40:28;;;;;;;0.47;0.30;;;15.30;99.90;;;;;;4965134;28;20665;-92
2021/07/15 03:42:57;;;;;;;0.40;0.30;;;15.30;99.90;;;;;;4974488;28;20633;-93
2021/07/15 03:45:25;;;;;;;0.63;0.30;;;15.30;99.90;;;;;;4971104;28;20675;-93
2021/07/15 03:47:53;;;;;;;0.70;0.30;;;15.30;99.90;;;;;;4964924;28;20650;-91
2021/07/15 03:50:23;;;;;;;2.30;0.50;;;15.30;99.90;;;;;;4969713;28;20986;-92
2021/07/15 03:52:52;;;;;;;0.73;0.30;;;15.40;99.90;;;;;;4965242;28;20670;-91
2021/07/15 03:55:24;;;;;;;0.60;0.30;;;15.40;99.90;;;;;;4967188;28;20652;-92
2021/07/15 03:57:53;;;;;;;0.50;0.40;;;15.40;99.90;;;;;;4963128;28;20637;-93
2021/07/15 04:00:22;;;;;;;0.50;0.30;;;15.40;99.90;;;;;;4965006;28;20677;-93
2021/07/15 04:02:49;;;;;;;0.80;0.37;;;15.40;99.90;;;;;;4964188;28;20632;-93
2021/07/15 04:05:20;;;;;;;1.33;0.30;;;15.40;99.90;;;;;;4965621;28;20667;-93
2021/07/15 04:07:50;;;;;;;1.00;0.30;;;15.40;99.90;;;;;;4965625;28;20630;-92
2021/07/15 04:10:18;;;;;;;0.50;0.30;;;15.40;99.90;;;;;;4956932;28;20669;-93
2021/07/15 04:12:48;;;;;;;0.60;0.30;;;15.40;99.90;;;;;;4968739;28;20833;-94
2021/07/15 04:15:20;;;;;;;0.50;0.40;;;15.50;99.90;;;;;;4973325;28;20651;-93
2021/07/15 04:17:49;;;;;;;0.40;0.20;;;15.50;99.90;;;;;;4972210;28;20689;-94
2021/07/15 04:20:19;;;;;;;0.40;0.40;;;15.60;99.90;;;;;;4977915;28;20661;-94
2021/07/15 04:22:48;;;;;;;1.63;0.30;;;15.60;99.90;;;;;;4979061;28;20649;-94
2021/07/15 04:25:18;;;;;;;0.40;0.40;;;15.60;99.90;;;;;;4980022;28;20630;-94
2021/07/15 04:27:47;;;;;;;0.40;0.30;;;15.60;99.90;;;;;;4967061;28;20729;-93
2021/07/15 04:30:18;;;;;;;0.60;0.30;;;15.60;99.90;;;;;;4957984;28;20916;-93
2021/07/15 04:32:49;;;;;;;1.00;0.40;;;15.70;99.90;;;;;;4966215;28;20629;-93
2021/07/15 04:35:17;;;;;;;1.27;0.40;;;15.70;99.90;;;;;;4962613;28;20633;-92
2021/07/15 04:37:46;;;;;;;2.33;0.30;;;15.70;99.90;;;;;;4967354;28;20606;-93
2021/07/15 04:40:17;;;;;;;0.40;0.20;;;15.80;99.90;;;;;;4966017;28;20744;-92
2021/07/15 04:42:45;;;;;;;1.53;0.30;;;15.90;99.90;;;;;;4962315;28;21106;-92
2021/07/15 04:45:13;;;;;;;0.50;0.30;;;15.80;99.90;;;;;;4953021;28;20634;-93
2021/07/15 04:47:47;;;;;;;0.47;0.30;;;15.90;99.90;;;;;;4966940;28;20636;-93
2021/07/15 04:50:15;;;;;;;0.73;0.53;;;15.90;99.90;;;;;;4968512;28;20657;-93
2021/07/15 04:52:43;;;;;;;1.00;0.40;;;15.90;99.90;;;;;;4967993;28;20625;-92
2021/07/15 04:55:12;;;;;;;1.47;0.60;;;15.90;99.90;;;;;;4994444;28;20696;-93
2021/07/15 04:57:39;;;;;;;0.47;0.30;;;15.90;99.90;;;;;;4975278;28;20744;-93
2021/07/15 05:00:09;;;;;;;1.37;0.50;;;15.90;99.90;;;;;;4970140;28;20597;-93
2021/07/15 05:02:37;;;;;;;0.50;0.40;;;15.90;99.90;;;;;;4981615;28;21044;-94
2021/07/15 05:05:08;;;;;;;1.47;0.40;;;15.80;99.90;;;;;;4977319;28;20615;-93
2021/07/15 05:07:36;;;;;;;0.60;0.40;;;15.80;99.90;;;;;;4965331;28;20658;-93
2021/07/15 05:10:04;;;;;;;0.50;0.40;;;15.90;99.90;;;;;;4971479;28;20719;-93
2021/07/15 05:12:31;;;;;;;1.03;0.40;;;15.90;99.90;;;;;;4969766;28;20624;-92
2021/07/15 05:14:58;;;;;;;0.60;0.50;;;15.90;99.90;;;;;;4971937;28;20755;-93
2021/07/15 05:17:24;;;;;;;0.87;0.40;;;15.90;99.90;;;;;;4967770;28;20630;-92
2021/07/15 05:19:52;;;;;;;0.47;0.30;;;15.90;99.90;;;;;;4974151;28;20636;-92
2021/07/15 05:22:20;;;;;;;10.37;1.40;;;15.90;99.90;;;;;;4972272;28;20633;-92
2021/07/15 05:24:46;;;;;;;4.40;0.50;;;16.00;99.90;;;;;;4983315;28;20625;-91
2021/07/15 05:27:13;;;;;;;0.77;0.40;;;16.00;99.90;;;;;;4991805;28;20665;-92
2021/07/15 05:29:40;;;;;;;0.40;0.30;;;16.00;99.90;;;;;;4967805;28;20625;-91
2021/07/15 05:32:08;;;;;;;4.60;0.40;;;16.10;99.90;;;;;;4973339;28;20662;-91
2021/07/15 05:34:36;;;;;;;2.33;0.37;;;16.10;99.90;;;;;;4958156;28;20641;-93
2021/07/15 05:37:04;;;;;;;1.63;0.50;;;16.10;99.90;;;;;;4964305;28;21183;-93
2021/07/15 05:39:32;;;;;;;1.93;0.30;;;16.10;99.90;;;;;;4970941;28;20644;-94
2021/07/15 05:42:00;;;;;;;0.67;0.30;;;16.20;99.90;;;;;;4964531;28;20668;-93
2021/07/15 05:44:26;;;;;;;1.73;0.30;;;16.20;99.90;;;;;;4964959;28;21158;-93
2021/07/15 05:46:53;;;;;;;4.00;0.50;;;16.30;99.90;;;;;;4970897;28;21310;-93
2021/07/15 05:49:20;;;;;;;0.50;0.40;;;16.30;99.90;;;;;;4970399;28;20676;-94
2021/07/15 05:51:48;;;;;;;2.40;0.40;;;16.30;99.90;;;;;;4969727;28;20679;-92
2021/07/15 05:54:15;;;;;;;0.90;0.30;;;16.40;99.90;;;;;;4971128;28;20736;-93
2021/07/15 05:56:44;;;;;;;1.80;0.43;;;16.40;99.90;;;;;;4968334;28;21183;-92
2021/07/15 05:59:11;;;;;;;1.13;0.40;;;16.40;99.90;;;;;;4970257;28;20636;-92
2021/07/15 06:01:39;;;;;;;0.80;0.30;;;16.40;99.90;;;;;;4970048;28;20836;-93
2021/07/15 06:04:06;;;;;;;4.63;0.70;;;16.40;99.90;;;;;;4969989;28;20630;-92
2021/07/15 06:06:32;;;;;;;1.83;0.40;;;16.60;99.90;;;;;;4971140;28;21032;-91
2021/07/15 06:08:59;;;;;;;1.90;0.60;;;16.60;99.90;;;;;;4968517;28;20652;-92
2021/07/15 06:11:26;;;;;;;1.50;1.40;;;16.70;99.90;;;;;;4966286;28;20657;-92
2021/07/15 06:13:54;;;;;;;2.20;0.50;;;16.70;99.90;;;;;;4969577;28;20606;-92
2021/07/15 06:16:21;;;;;;;1.83;0.43;;;16.80;99.90;;;;;;4974927;28;20668;-92
2021/07/15 06:18:48;;;;;;;1.00;0.40;;;16.80;99.90;;;;;;4967772;28;20614;-92
2021/07/15 06:21:17;;;;;;;0.47;0.30;;;16.90;99.90;;;;;;4976344;28;20671;-92
2021/07/15 06:23:44;;;;;;;0.73;0.33;;;16.90;99.90;;;;;;4975516;28;20857;-92
2021/07/15 06:26:11;;;;;;;0.50;0.40;;;16.90;99.90;;;;;;4968884;28;20665;-91
2021/07/15 06:28:38;;;;;;;1.00;0.50;;;16.80;99.90;;;;;;4962729;28;21273;-92
2021/07/15 06:31:07;;;;;;;0.90;0.50;;;16.70;99.90;;;;;;4968284;28;20715;-92
2021/07/15 06:33:34;;;;;;;2.53;0.60;;;16.80;99.90;;;;;;4975444;28;20644;-92
2021/07/15 06:36:01;;;;;;;1.57;0.33;;;16.80;99.90;;;;;;4977979;28;20647;-92
2021/07/15 06:38:31;;;;;;;3.93;0.40;;;16.90;99.90;;;;;;4969694;28;20652;-93
2021/07/15 06:41:00;;;;;;;7.90;0.60;;;16.90;99.90;;;;;;4967484;28;20762;-92
2021/07/15 06:43:27;;;;;;;3.50;0.40;;;16.70;99.90;;;;;;4971669;28;20644;-92
2021/07/15 06:45:54;;;;;;;1.33;0.40;;;16.80;99.90;;;;;;4970095;28;20648;-92
2021/07/15 06:48:22;;;;;;;1.00;0.60;;;16.80;99.90;;;;;;4967683;28;20639;-92
2021/07/15 06:50:49;;;;;;;0.50;0.40;;;17.00;99.90;;;;;;4968277;28;20680;-91
2021/07/15 06:53:16;;;;;;;0.97;0.50;;;17.10;99.90;;;;;;4970067;28;20632;-91
2021/07/15 06:55:43;;;;;;;2.07;0.70;;;17.00;99.90;;;;;;4968996;28;20640;-90
2021/07/15 06:58:10;;;;;;;1.47;0.37;;;17.00;99.90;;;;;;4962714;28;20622;-91
2021/07/15 07:00:39;;;;;;;0.77;0.50;;;17.00;99.90;;;;;;4974181;28;20656;-91
2021/07/15 07:03:05;;;;;;;2.50;0.50;;;17.10;99.90;;;;;;4964764;28;21147;-91
2021/07/15 07:05:34;;;;;;;4.13;0.60;;;17.20;99.90;;;;;;4971494;28;20625;-91
2021/07/15 07:08:00;;;;;;;2.90;0.50;;;17.30;99.90;;;;;;4970574;28;20669;-90
2021/07/15 07:10:27;;;;;;;3.63;0.80;;;17.30;99.90;;;;;;4966633;28;20649;-90
2021/07/15 07:12:54;;;;;;;1.27;0.70;;;17.30;99.90;;;;;;4968967;28;21177;-90
2021/07/15 07:15:21;;;;;;;2.57;0.60;;;17.40;99.90;;;;;;4968826;28;20633;-90
2021/07/15 07:17:48;;;;;;;0.70;0.33;;;17.60;99.90;;;;;;4958100;28;20647;-90
2021/07/15 07:20:16;;;;;;;2.20;0.60;;;17.70;99.90;;;;;;4966937;28;21198;-89
2021/07/15 07:22:49;;;;;;;0.67;0.47;;;17.90;99.90;;;;;;4962525;28;21168;-90
2021/07/15 07:25:16;;;;;;;1.07;0.40;;;18.00;99.90;;;;;;4962162;28;20751;-90
2021/07/15 07:27:45;;;;;;;2.50;0.70;;;17.90;99.90;;;;;;4968579;28;20665;-90
2021/07/15 07:30:15;;;;;;;1.30;0.40;;;18.00;99.90;;;;;;4958818;28;21012;-90
2021/07/15 07:32:42;;;;;;;2.03;0.50;;;18.10;99.90;;;;;;4968307;28;20656;-90
2021/07/15 07:35:11;;;;;;;2.10;0.50;;;18.20;99.90;;;;;;4970043;28;20957;-90
2021/07/15 07:37:38;;;;;;;4.47;1.03;;;18.40;99.90;;;;;;4975380;28;20626;-90
2021/07/15 07:40:08;;;;;;;1.47;0.53;;;18.40;99.90;;;;;;4965136;28;21273;-90
2021/07/15 07:42:36;;;;;;;0.57;0.50;;;18.40;99.90;;;;;;4967175;28;20629;-91
2021/07/15 07:45:05;;;;;;;1.20;0.53;;;18.50;99.90;;;;;;4979958;28;20665;-90
2021/07/15 07:47:32;;;;;;;1.67;0.63;;;18.70;99.90;;;;;;4974980;28;20668;-90
2021/07/15 07:49:59;;;;;;;0.87;0.40;;;18.60;99.90;;;;;;4971359;28;20661;-91
2021/07/15 07:52:26;;;;;;;1.00;0.70;;;18.50;99.90;;;;;;4966544;28;20616;-90
2021/07/15 07:54:53;;;;;;;0.90;0.50;;;18.40;99.90;;;;;;4969803;28;21023;-90
2021/07/15 07:57:21;;;;;;;0.70;0.40;;;18.60;99.90;;;;;;4967395;28;20629;-90
2021/07/15 07:59:48;;;;;;;1.63;0.50;;;18.50;99.90;;;;;;4969952;28;21080;-91
2021/07/15 08:02:18;;;;;;;0.63;0.50;;;18.50;99.90;;;;;;4974800;28;20637;-90
2021/07/15 08:04:45;;;;;;;0.97;0.50;;;18.70;99.90;;;;;;4972429;28;21251;-90
2021/07/15 08:07:14;;;;;;;0.80;0.50;;;18.80;99.90;;;;;;4971654;28;20680;-90
2021/07/15 08:09:44;;;;;;;5.13;0.60;;;19.10;99.90;;;;;;4970562;28;20693;-91
2021/07/15 08:12:12;;;;;;;1.10;0.40;;;19.10;99.90;;;;;;4972779;28;20644;-91
2021/07/15 08:14:40;;;;;;;0.70;0.50;;;19.10;99.90;;;;;;4968752;28;20688;-90
2021/07/15 08:17:07;;;;;;;2.03;0.43;;;18.90;99.90;;;;;;4969384;28;20638;-90
2021/07/15 08:19:34;;;;;;;4.73;0.60;;;18.80;99.90;;;;;;4972450;28;20657;-90
2021/07/15 08:22:01;;;;;;;1.37;0.30;;;19.00;99.90;;;;;;4973269;28;20628;-90
2021/07/15 08:24:28;;;;;;;1.90;0.90;;;18.90;99.90;;;;;;4971657;28;20759;-89
2021/07/15 08:26:55;;;;;;;0.60;0.40;;;19.00;99.90;;;;;;4970265;28;20666;-90
2021/07/15 08:29:22;;;;;;;1.97;0.50;;;19.10;99.90;;;;;;4970342;28;20675;-89
2021/07/15 08:31:50;;;;;;;0.60;0.57;;;19.00;99.90;;;;;;4969267;28;20705;-89
2021/07/15 08:34:17;;;;;;;1.83;0.63;;;19.00;99.90;;;;;;4974217;28;20692;-90
2021/07/15 08:36:43;;;;;;;4.07;0.80;;;18.80;99.90;;;;;;4971598;28;20643;-90
2021/07/15 08:39:10;;;;;;;0.90;0.53;;;18.90;99.90;;;;;;4968310;28;20747;-89
2021/07/15 08:41:38;;;;;;;0.80;0.43;;;18.70;99.90;;;;;;4965095;28;20652;-90
2021/07/15 08:44:06;;;;;;;1.17;0.50;;;18.70;99.90;;;;;;4970180;28;20626;-89
2021/07/15 08:46:35;;;;;;;0.80;0.60;;;18.50;99.90;;;;;;4966426;28;20629;-89
2021/07/15 08:49:04;;;;;;;0.60;0.60;;;18.70;99.90;;;;;;4967292;28;21053;-90
2021/07/15 08:51:31;;;;;;;1.53;0.50;;;18.80;99.90;;;;;;4972939;28;20640;-90
2021/07/15 08:53:58;;;;;;;0.80;0.63;;;18.80;99.90;;;;;;4968166;28;20645;-90
2021/07/15 08:56:38;;;;;;;0.47;0.30;;;18.90;99.90;;;;;;4970091;28;20657;-90
2021/07/15 08:59:06;;;;;;;2.20;0.60;;;19.10;99.90;;;;;;4966079;28;20996;-90
2021/07/15 09:01:34;;;;;;;3.20;0.70;;;18.90;99.90;;;;;;4968862;28;20634;-90
2021/07/15 09:04:09;;;;;;;3.10;0.70;;;18.90;99.90;;;;;;4968718;28;20630;-90
2021/07/15 09:06:37;;;;;;;1.70;0.40;;;19.00;99.90;;;;;;4966184;28;21039;-90
2021/07/15 09:09:04;;;;;;;0.93;0.40;;;19.10;99.90;;;;;;4969922;28;20618;-90
2021/07/15 09:11:32;;;;;;;0.73;0.50;;;19.20;99.90;;;;;;4967804;28;20633;-90
2021/07/15 09:13:59;;;;;;;1.80;0.40;;;19.30;99.90;;;;;;4968523;28;20650;-90
2021/07/15 09:16:26;;;;;;;0.60;0.47;;;19.30;99.90;;;;;;4967307;28;20692;-89
2021/07/15 09:18:58;;;;;;;4.60;0.50;;;19.30;99.90;;;;;;4966072;28;20676;-89
2021/07/15 09:21:30;;;;;;;5.43;0.60;;;19.90;99.90;;;;;;4966141;28;20626;-89
2021/07/15 09:23:57;;;;;;;0.60;0.40;;;20.10;99.90;;;;;;4968124;28;20699;-90
2021/07/15 09:26:27;;;;;;;0.60;0.40;;;20.20;99.90;;;;;;4969664;28;20630;-90
2021/07/15 09:28:55;;;;;;;0.60;0.50;;;19.90;99.90;;;;;;4970277;28;20680;-89
2021/07/15 09:31:24;;;;;;;1.30;0.40;;;20.20;99.90;;;;;;4971307;28;20656;-89
2021/07/15 09:33:51;;;;;;;1.13;0.40;;;20.00;99.90;;;;;;4976814;28;20657;-90
2021/07/15 09:36:22;;;;;;;1.37;0.57;;;20.10;99.90;;;;;;4965948;28;21251;-90
2021/07/15 09:38:50;;;;;;;2.17;1.37;;;20.40;99.90;;;;;;4970054;28;20629;-90
2021/07/15 09:41:19;;;;;;;0.77;0.50;;;21.00;99.90;;;;;;4971110;28;20656;-90
2021/07/15 09:43:46;;;;;;;1.07;0.50;;;21.40;99.90;;;;;;4976289;28;21214;-90
2021/07/15 09:46:18;;;;;;;2.80;0.60;;;21.70;99.90;;;;;;4978770;28;20644;-88
2021/07/15 09:48:50;;;;;;;2.30;0.50;;;21.70;99.90;;;;;;4974556;28;20679;-91
2021/07/15 09:51:18;;;;;;;1.27;0.60;;;21.40;99.90;;;;;;4974914;28;20634;-90
2021/07/15 09:53:47;;;;;;;0.57;0.40;;;21.60;99.90;;;;;;4978188;28;20869;-91
2021/07/15 09:56:18;;;;;;;0.60;0.40;;;21.80;99.90;;;;;;4975653;28;21034;-90
2021/07/15 09:58:51;;;;;;;2.73;0.63;;;21.60;99.90;;;;;;4972342;28;20619;-88
2021/07/15 10:01:20;;;;;;;2.60;1.07;;;21.20;99.90;;;;;;4977417;28;20625;-90
2021/07/15 10:03:56;;;;;;;2.00;0.50;;;21.80;99.90;;;;;;4981297;28;20649;-89
2021/07/15 10:06:23;;;;;;;0.70;0.50;;;21.70;99.90;;;;;;4983161;28;21260;-89
2021/07/15 10:08:54;;;;;;;0.60;0.50;;;21.30;99.90;;;;;;4975020;28;20673;-90
2021/07/15 10:11:25;;;;;;;1.13;0.50;;;21.10;99.90;;;;;;4977853;28;20600;-90
2021/07/15 10:14:00;;;;;;;0.50;0.40;;;21.00;99.90;;;;;;4981700;28;20701;-90
2021/07/15 10:16:29;;;;;;;2.03;0.50;;;20.90;99.90;;;;;;4976990;28;21182;-89
2021/07/15 10:18:57;;;;;;;0.90;0.43;;;20.90;99.90;;;;;;4976652;28;20637;-90
2021/07/15 10:21:26;;;;;;;1.23;0.53;;;21.00;99.90;;;;;;4982048;28;20644;-90
2021/07/15 10:23:57;;;;;;;3.53;0.50;;;21.00;99.90;;;;;;4980883;28;20641;-90
2021/07/15 10:26:26;;;;;;;1.37;0.70;;;21.50;99.90;;;;;;4975535;28;21140;-90
2021/07/15 10:28:53;;;;;;;6.00;0.80;;;21.80;99.90;;;;;;4979864;28;20668;-90
2021/07/15 10:31:22;;;;;;;0.70;0.63;;;21.80;99.90;;;;;;4984853;28;20715;-90
2021/07/15 10:33:50;;;;;;;2.37;0.60;;;21.80;99.90;;;;;;4982042;28;20660;-90
2021/07/15 10:36:17;;;;;;;0.73;0.50;;;21.80;99.90;;;;;;4981984;28;20667;-90
2021/07/15 10:38:48;;;;;;;0.90;0.70;;;22.10;99.90;;;;;;4975462;28;20621;-89
2021/07/15 10:41:15;;;;;;;1.23;0.50;;;22.60;99.90;;;;;;4977622;28;20641;-89
2021/07/15 10:43:43;;;;;;;1.83;0.60;;;23.10;99.90;;;;;;4977228;28;20648;-90
2021/07/15 10:46:10;;;;;;;0.53;0.50;;;23.10;99.90;;;;;;4978546;28;20687;-91
2021/07/15 10:48:38;;;;;;;0.67;0.40;;;23.20;99.90;;;;;;4978052;28;20664;-88
2021/07/15 10:51:07;;;;;;;1.30;0.73;;;23.10;99.90;;;;;;4972626;28;20629;-90
2021/07/15 10:53:36;;;;;;;1.47;0.50;;;23.10;99.90;;;;;;4979602;28;20769;-91
2021/07/15 10:56:04;;;;;;;0.50;0.40;;;22.80;99.90;;;;;;4974965;28;20632;-90
2021/07/15 10:58:50;;;;;;;0.60;0.40;;;22.60;99.90;;;;;;4974509;28;20618;-91
2021/07/15 11:01:38;;;;;;;0.57;0.40;;;22.50;99.90;;;;;;4975646;28;20637;-90
2021/07/15 11:04:10;;;;;;;1.33;0.30;;;21.50;99.90;;;;;;4977176;28;20622;-90
2021/07/15 11:06:38;;;;;;;1.37;0.60;;;21.50;99.90;;;;;;4969250;28;20637;-89
2021/07/15 11:09:06;;;;;;;1.27;0.60;;;21.10;99.90;;;;;;4974893;28;20673;-88
2021/07/15 11:11:38;;;;;;;1.57;0.60;;;21.40;99.90;;;;;;4973372;28;20637;-88
2021/07/15 11:14:09;;;;;;;0.80;0.60;;;21.20;99.90;;;;;;4972117;28;20635;-89
2021/07/15 11:16:53;;;;;;;2.20;0.70;;;21.10;99.90;;;;;;4970287;28;20629;-89
2021/07/15 11:20:01;;;;;;;2.10;1.13;;;21.10;99.90;;;;;;4975858;28;20621;-89
2021/07/15 11:22:49;;;;;;;3.53;1.03;;;21.20;99.90;;;;;;4973790;28;20637;-90
2021/07/15 11:25:32;;;;;;;0.80;0.60;;;21.30;99.90;;;;;;4976543;28;20618;-89
2021/07/15 11:28:18;;;;;;;1.33;0.50;;;21.30;99.90;;;;;;4976688;28;21049;-90
2021/07/15 11:30:50;;;;;;;3.77;0.63;;;22.00;99.90;;;;;;4974520;28;20635;-89
2021/07/15 11:33:38;;;;;;;1.93;0.90;;;22.30;99.90;;;;;;4976490;28;20663;-89
2021/07/15 11:36:11;;;;;;;1.20;0.97;;;22.60;99.90;;;;;;4971465;28;20633;-90
2021/07/15 11:38:40;;;;;;;5.20;1.03;;;22.80;99.90;;;;;;4980775;28;20626;-90
2021/07/15 11:41:09;;;;;;;0.60;0.50;;;22.60;99.90;;;;;;4968089;28;20649;-91
2021/07/15 11:43:51;;;;;;;1.07;0.50;;;22.70;99.90;;;;;;4972171;28;20642;-89
2021/07/15 11:46:20;;;;;;;2.80;1.00;;;22.70;99.90;;;;;;4974005;28;20621;-89
2021/07/15 11:49:07;;;;;;;1.70;0.70;;;22.70;99.90;;;;;;4974537;28;20673;-88
2021/07/15 11:51:38;;;;;;;0.80;0.63;;;22.50;99.90;;;;;;4976287;28;21060;-89
2021/07/15 11:54:26;;;;;;;2.60;0.90;;;22.60;99.90;;;;;;4976860;28;20625;-89
2021/07/15 11:56:58;;;;;;;5.40;0.80;;;22.40;99.90;;;;;;4976620;28;20721;-87
2021/07/15 11:59:41;;;;;;;0.80;0.60;;;22.20;99.90;;;;;;4963964;28;20632;-91
2021/07/15 12:02:24;;;;;;;1.73;0.60;;;22.70;99.90;;;;;;4974379;28;20989;-89
2021/07/15 12:05:12;;;;;;;0.53;0.50;;;22.40;99.90;;;;;;4973117;28;20633;-91
2021/07/15 12:07:41;;;;;;;1.37;0.70;;;22.20;99.90;;;;;;4973348;28;20633;-91
2021/07/15 12:10:12;;;;;;;1.30;0.80;;;22.00;99.90;;;;;;4977997;28;20640;-90
2021/07/15 12:12:42;;;;;;;0.70;0.70;;;22.00;99.90;;;;;;4970896;28;20661;-90
2021/07/15 12:15:20;;;;;;;1.87;0.80;;;22.10;99.90;;;;;;4969538;28;21039;-91
2021/07/15 12:17:51;;;;;;;0.80;0.70;;;22.30;99.90;;;;;;4977072;28;20636;-90
2021/07/15 12:20:20;;;;;;;0.80;0.53;;;22.20;99.90;;;;;;4973299;28;20644;-90
2021/07/15 12:22:53;;;;;;;0.90;0.40;;;21.90;99.90;;;;;;4972748;28;20662;-90
2021/07/15 12:25:23;;;;;;;0.60;0.40;;;22.10;99.90;;;;;;4980180;28;20637;-91
2021/07/15 12:27:54;;;;;;;1.83;0.63;;;21.90;99.90;;;;;;4978612;28;21177;-91
2021/07/15 12:30:25;;;;;;;1.53;0.47;;;21.70;99.90;;;;;;4973683;28;21197;-90
2021/07/15 12:33:00;;;;;;;0.73;0.50;;;21.60;99.90;;;;;;4972872;28;21255;-90
2021/07/15 12:35:29;;;;;;;0.80;0.50;;;21.70;99.90;;;;;;4973272;28;20625;-90
2021/07/15 12:37:59;;;;;;;2.10;0.50;;;21.70;99.90;;;;;;4973066;28;21149;-89
2021/07/15 12:40:32;;;;;;;2.30;0.57;;;21.90;99.90;;;;;;4972899;28;20648;-90
2021/07/15 12:43:13;;;;;;;0.60;0.33;;;21.90;99.90;;;;;;4969907;28;20661;-90
2021/07/15 12:45:44;;;;;;;1.37;0.47;;;21.90;99.90;;;;;;4968823;28;20638;-90
2021/07/15 12:48:12;;;;;;;0.60;0.40;;;22.00;99.90;;;;;;4963530;28;20668;-89
2021/07/15 12:50:40;;;;;;;4.33;0.50;;;22.40;99.90;;;;;;4967683;28;20677;-90
2021/07/15 12:53:26;;;;;;;0.93;0.43;;;22.20;99.90;;;;;;4969746;28;20692;-90
2021/07/15 12:55:59;;;;;;;0.63;0.43;;;21.90;99.90;;;;;;4970440;28;20720;-89
2021/07/15 12:58:28;;;;;;;0.70;0.60;;;22.20;99.90;;;;;;4971969;28;21037;-89
2021/07/15 13:01:02;;;;;;;0.50;0.33;;;22.20;99.90;;;;;;4968599;28;20622;-90